Derby, New York
Current Conditions -  °F | °C
As of 11:53 PM on Monday 26 Jan 2015 (Local Time) from KDKK Reporting Station
Light Snow Light Snow  
Wind Chill:   Ceiling: 3200
Heat Index: 16°   Visibility: 5mi
Dew Point: 12°   Wind: 7mph
Humidity: 84%   Direction: 40°NE
Pressure: 29.91"   Gusts: NA
Location:  42.68°N, 78.97°W
Report Text: KDKK 270453Z AUTO 04006KT 5SM -SN BR BKN032 OVC100 M09/M11 A2991 RMK AO2 SLP140 P0000 T10891111 410671100
Loading
Personal Weather Stations






























Interactive Weather Map New forecast layout! Learn more

10-Day Weather Forecast

Advertisements
Track Severe Weather on mobile